Grelton, Ohio
Current Conditions -  °F | °C
As of 2:55 PM on Friday 24 Oct 2014 (Local Time) from KUSE Reporting Station
Overcast Overcast  
Wind Chill: 57°   Ceiling: 2900
Heat Index: 57°   Visibility: 9mi
Dew Point: 46°   Wind: 6mph
Humidity: 67%   Direction: 250°WSW
Pressure: 30.03"   Gusts: NA
Location:  41.34°N, 84°W
Report Text: KUSE 241855Z AUTO 25005KT 9SM BKN029 OVC035 14/08 A3003 RMK AO2
Loading
Personal Weather Stations






























Interactive Weather Map
Tropical Storm Tracking
New forecast layout! Learn more

10-Day Weather Forecast

Advertisements
Track Severe Weather on mobile